createdAt,value
2022-07-29T00:00:01.675Z,0
2022-07-29T00:05:01.684Z,0
2022-07-29T00:10:01.673Z,0
2022-07-29T00:15:01.671Z,0
2022-07-29T00:20:01.712Z,0
2022-07-29T00:25:02.290Z,0
2022-07-29T00:30:01.719Z,0
2022-07-29T00:35:01.754Z,0
2022-07-29T00:40:01.693Z,0
2022-07-29T00:45:01.741Z,0
2022-07-29T00:50:01.732Z,0
2022-07-29T00:55:06.455Z,0
2022-07-29T01:00:01.949Z,0
2022-07-29T01:05:01.889Z,0
2022-07-29T01:10:01.885Z,0
2022-07-29T01:15:01.735Z,0
2022-07-29T01:20:01.751Z,0
2022-07-29T01:25:01.873Z,0
2022-07-29T01:30:01.798Z,0
2022-07-29T01:35:01.754Z,0
2022-07-29T01:40:01.822Z,0
2022-07-29T01:45:01.815Z,0
2022-07-29T01:50:02.114Z,0
2022-07-29T01:55:01.904Z,0
2022-07-29T02:00:01.775Z,0
2022-07-29T02:05:01.845Z,0
2022-07-29T02:10:01.728Z,0
2022-07-29T02:15:01.823Z,0
2022-07-29T02:20:01.818Z,0
2022-07-29T02:25:02.031Z,0
2022-07-29T02:30:01.973Z,0
2022-07-29T02:35:01.803Z,0
2022-07-29T02:40:01.847Z,0
2022-07-29T02:45:01.900Z,0
2022-07-29T02:50:01.873Z,0
2022-07-29T02:55:01.952Z,0
2022-07-29T03:00:01.977Z,0
2022-07-29T03:05:06.868Z,0
2022-07-29T03:10:01.960Z,0
2022-07-29T03:15:01.875Z,0
2022-07-29T03:20:01.867Z,0
2022-07-29T03:25:01.861Z,0
2022-07-29T03:30:02.011Z,0.22452910052910055
2022-07-29T03:35:01.847Z,0.34707936507936504
2022-07-29T03:40:02.213Z,0.3255132275132275
2022-07-29T03:45:01.846Z,0.44086772486772485
2022-07-29T03:50:01.881Z,0.4835978835978836
2022-07-29T03:55:01.828Z,0.6878095238095239
2022-07-29T04:00:01.936Z,0.8294179894179894
2022-07-29T04:05:02.003Z,1.001121693121693
2022-07-29T04:10:01.854Z,1.14389417989418
2022-07-29T04:15:01.899Z,1.2741269841269842
2022-07-29T04:20:01.924Z,1.4266455026455027
2022-07-29T04:25:04.103Z,1.562984126984127
2022-07-29T04:30:01.930Z,1.6832592592592595
2022-07-29T04:35:02.180Z,1.8024444444444447
2022-07-29T04:40:02.112Z,1.9070370370370369
2022-07-29T04:45:01.902Z,2.0020634920634923
2022-07-29T04:50:01.943Z,2.101777777777778
2022-07-29T04:55:01.915Z,2.179968253968254
2022-07-29T05:00:01.936Z,2.2546984126984126
2022-07-29T05:05:02.006Z,2.315185185185185
2022-07-29T05:10:02.361Z,2.357989417989418
2022-07-29T05:15:01.921Z,2.4277989417989416
2022-07-29T05:20:01.925Z,2.4767830687830688
2022-07-29T05:25:05.625Z,2.681957671957672
2022-07-29T05:30:02.024Z,3.277925925925926
2022-07-29T05:35:02.026Z,3.750084656084656
2022-07-29T05:40:02.079Z,4.3524338624338625
2022-07-29T05:45:03.803Z,5.137798941798942
2022-07-29T05:50:01.991Z,6.059375661375661
2022-07-29T05:55:02.741Z,7.126338624338624
2022-07-29T06:00:01.971Z,8.451597883597884
2022-07-29T06:05:02.085Z,9.881121693121694
2022-07-29T06:10:02.154Z,11.429301587301586
2022-07-29T06:15:02.010Z,13.326243386243386
2022-07-29T06:20:02.018Z,15.04948148148148
2022-07-29T06:25:02.022Z,16.69451851851852
2022-07-29T06:30:02.064Z,20.05131216931217
2022-07-29T06:35:32.208Z,24.82257142857143
2022-07-29T06:40:02.237Z,22.342613756613755
2022-07-29T06:45:04.986Z,19.06010582010582
2022-07-29T06:50:01.982Z,21.228708994708995
2022-07-29T06:55:02.015Z,17.627301587301584
2022-07-29T07:00:02.038Z,26.852285714285717
2022-07-29T07:05:02.281Z,36.26107936507936
2022-07-29T07:10:02.234Z,33.822084656084655
2022-07-29T07:15:02.029Z,31.726063492063496
2022-07-29T07:20:02.045Z,39.13591534391534
2022-07-29T07:25:02.228Z,30.317957671957675
2022-07-29T07:30:02.165Z,35.56080423280423
2022-07-29T07:35:02.288Z,43.47548148148148
2022-07-29T07:40:02.258Z,40.69078306878307
2022-07-29T07:45:13.310Z,44.389037037037035
2022-07-29T07:50:02.094Z,46.34378835978836
2022-07-29T07:55:02.214Z,50.42043386243385
2022-07-29T08:00:02.188Z,52.44237037037037
2022-07-29T08:05:02.107Z,54.13920634920635
2022-07-29T08:10:02.086Z,55.908169312169306
2022-07-29T08:15:02.141Z,58.67735449735449
2022-07-29T08:20:02.088Z,60.71308994708995
2022-07-29T08:25:02.277Z,63.05962962962963
2022-07-29T08:30:02.240Z,62.567915343915345
2022-07-29T08:35:02.171Z,55.00421164021164
2022-07-29T08:40:02.164Z,51.214296296296304
2022-07-29T08:45:02.154Z,51.91207407407408
2022-07-29T08:50:02.271Z,54.83501587301588
2022-07-29T08:55:02.623Z,57.60824338624339
2022-07-29T09:00:06.302Z,56.14614814814814
2022-07-29T09:05:02.318Z,63.16031746031746
2022-07-29T09:10:02.145Z,62.017968253968256
2022-07-29T09:15:02.933Z,66.91253968253969
2022-07-29T09:20:02.435Z,72.92349206349206
2022-07-29T09:25:02.181Z,70.71113227513229
2022-07-29T09:30:02.756Z,70.04825396825397
2022-07-29T09:35:02.530Z,72.46651851851851
2022-07-29T09:40:02.387Z,65.99261375661375
2022-07-29T09:45:02.533Z,64.21440211640213
2022-07-29T09:50:02.180Z,57.93004232804233
2022-07-29T09:55:06.911Z,63.773365079365085
2022-07-29T10:00:02.233Z,67.45729100529101
2022-07-29T10:05:02.284Z,58.772296296296304
2022-07-29T10:10:02.453Z,60.079015873015884
2022-07-29T10:15:02.320Z,61.12139682539682
2022-07-29T10:20:02.218Z,68.73284656084657
2022-07-29T10:25:02.259Z,70.43827513227514
2022-07-29T10:30:02.356Z,74.76901587301587
2022-07-29T10:35:02.318Z,74.01812698412698
2022-07-29T10:40:02.237Z,72.69416931216931
2022-07-29T10:45:02.664Z,74.24743915343916
2022-07-29T10:50:02.283Z,77.169417989418
2022-07-29T10:55:02.389Z,78.1137566137566
2022-07-29T11:00:02.284Z,76.75485714285713
2022-07-29T11:05:02.239Z,79.95144973544974
2022-07-29T11:10:02.289Z,81.4546984126984
2022-07-29T11:15:02.455Z,77.53601058201059
2022-07-29T11:20:02.357Z,81.75243386243388
2022-07-29T11:25:02.285Z,82.38934391534393
2022-07-29T11:30:02.287Z,84.26284656084655
2022-07-29T11:35:02.372Z,83.53031746031746
2022-07-29T11:40:02.520Z,82.19830687830688
2022-07-29T11:45:04.266Z,80.84685714285715
2022-07-29T11:50:02.267Z,80.92515343915345
2022-07-29T11:55:09.531Z,81.77883597883599
2022-07-29T12:00:09.374Z,84.80974603174603
2022-07-29T12:05:02.278Z,87.92057142857144
2022-07-29T12:25:17.140Z,59.30336507936508
2022-07-29T12:30:02.369Z,35.510074074074076
2022-07-29T12:35:02.543Z,89.12240211640213
2022-07-29T12:40:02.330Z,85.05539682539684
2022-07-29T12:45:02.351Z,80.77775661375662
2022-07-29T12:50:02.348Z,82.11950264550265
2022-07-29T12:55:02.415Z,81.31831746031746
2022-07-29T13:00:02.352Z,78.15478306878308
2022-07-29T13:05:02.341Z,78.59294179894181
2022-07-29T13:10:02.462Z,78.84323809523809
2022-07-29T13:15:02.355Z,77.92286772486773
2022-07-29T13:20:02.372Z,76.35896296296298
2022-07-29T13:25:02.385Z,71.57334391534393
2022-07-29T13:30:02.522Z,74.04224338624338
2022-07-29T13:35:05.031Z,76.04560846560847
2022-07-29T13:40:02.355Z,76.13227513227513
2022-07-29T13:45:02.473Z,74.51714285714286
2022-07-29T13:50:02.411Z,73.94580952380953
2022-07-29T13:55:02.420Z,72.88306878306878
2022-07-29T14:00:02.411Z,71.04009523809523
2022-07-29T14:05:06.299Z,70.13406349206349
2022-07-29T14:10:02.458Z,66.22857142857144
2022-07-29T14:15:02.476Z,68.88730158730158
2022-07-29T14:20:02.417Z,68.2084656084656
2022-07-29T14:25:05.662Z,67.03542857142857
2022-07-29T14:30:02.449Z,65.85404232804233
2022-07-29T14:35:02.438Z,65.16667724867725
2022-07-29T14:40:02.455Z,63.98736507936509
2022-07-29T14:45:02.694Z,62.87760846560847
2022-07-29T14:50:02.509Z,62.42038095238096
2022-07-29T14:55:02.450Z,62.72481481481481
2022-07-29T15:00:02.564Z,58.15151322751323
2022-07-29T15:05:02.682Z,49.154137566137564
2022-07-29T15:10:02.614Z,50.16343915343915
2022-07-29T15:15:03.468Z,60.86922751322751
2022-07-29T15:20:02.537Z,58.47639153439154
2022-07-29T15:25:02.647Z,30.915640211640216
2022-07-29T15:30:02.478Z,53.1644126984127
2022-07-29T15:35:02.480Z,51.940275132275126
2022-07-29T15:40:02.663Z,49.27461375661375
2022-07-29T15:45:02.671Z,48.748317460317466
2022-07-29T15:50:02.593Z,46.492359788359785
2022-07-29T15:55:02.523Z,43.06674074074074
2022-07-29T16:00:02.696Z,40.485756613756614
2022-07-29T16:05:02.726Z,37.686793650793646
2022-07-29T16:10:02.595Z,37.54541798941799
2022-07-29T16:15:06.352Z,33.814931216931214
2022-07-29T16:20:02.620Z,34.47845502645502
2022-07-29T16:25:02.710Z,33.391619047619045
2022-07-29T16:30:02.534Z,31.43615873015873
2022-07-29T16:35:02.914Z,30.406687830687833
2022-07-29T16:40:02.655Z,29.09521693121693
2022-07-29T16:45:02.810Z,27.898296296296298
2022-07-29T16:50:02.546Z,25.70685714285715
2022-07-29T16:55:02.580Z,23.850084656084658
2022-07-29T17:00:07.642Z,21.795873015873017
2022-07-29T17:05:02.892Z,20.027968253968254
2022-07-29T17:10:04.053Z,17.977544973544973
2022-07-29T17:15:02.523Z,16.166624338624338
2022-07-29T17:20:02.567Z,14.45367195767196
2022-07-29T17:25:02.746Z,12.090148148148149
2022-07-29T17:30:02.673Z,10.803820105820105
2022-07-29T17:35:02.555Z,9.73904761904762
2022-07-29T17:40:02.589Z,8.647767195767196
2022-07-29T17:45:02.775Z,7.323481481481481
2022-07-29T17:50:02.995Z,5.8963597883597885
2022-07-29T17:55:02.707Z,4.616846560846561
2022-07-29T18:00:02.612Z,3.864899470899471
2022-07-29T18:05:02.677Z,3.080571428571429
2022-07-29T18:10:02.827Z,2.44368253968254
2022-07-29T18:15:02.605Z,1.9581904761904763
2022-07-29T18:20:02.632Z,1.5962433862433862
2022-07-29T18:25:02.648Z,1.3235978835978834
2022-07-29T18:30:03.457Z,1.1035555555555556
2022-07-29T18:35:02.741Z,0.855989417989418
2022-07-29T18:40:02.673Z,0.6172275132275132
2022-07-29T18:45:02.615Z,0.378973544973545
2022-07-29T18:50:02.681Z,0.4636825396825397
2022-07-29T18:55:02.796Z,0.41168253968253976
2022-07-29T19:00:02.867Z,0.28401058201058205
2022-07-29T19:05:02.635Z,0.2603068783068783
2022-07-29T19:10:02.666Z,0
2022-07-29T19:15:02.668Z,0
2022-07-29T19:20:02.996Z,0
2022-07-29T19:25:02.897Z,0
2022-07-29T19:30:02.789Z,0
2022-07-29T19:35:02.693Z,0
2022-07-29T19:40:02.862Z,0
2022-07-29T19:45:02.940Z,0
2022-07-29T19:50:02.699Z,0
2022-07-29T19:55:07.298Z,0
2022-07-29T20:00:02.766Z,0
2022-07-29T20:05:02.715Z,0
2022-07-29T20:10:02.867Z,0
2022-07-29T20:15:02.716Z,0
2022-07-29T20:20:02.692Z,0
2022-07-29T20:25:02.771Z,0
2022-07-29T20:30:02.773Z,0
2022-07-29T20:35:02.943Z,0
2022-07-29T20:40:02.978Z,0
2022-07-29T20:45:06.849Z,0
2022-07-29T20:50:02.781Z,0
2022-07-29T20:55:02.758Z,0
2022-07-29T21:00:02.877Z,0
2022-07-29T21:05:02.917Z,0
2022-07-29T21:10:02.776Z,0
2022-07-29T21:15:02.808Z,0
2022-07-29T21:20:02.795Z,0
2022-07-29T21:25:02.841Z,0
2022-07-29T21:30:03.007Z,0
2022-07-29T21:35:02.751Z,0
2022-07-29T21:40:02.814Z,0
2022-07-29T21:45:02.846Z,0
2022-07-29T21:50:02.804Z,0
2022-07-29T21:55:02.979Z,0
2022-07-29T22:00:03.266Z,0
2022-07-29T22:05:02.832Z,0
2022-07-29T22:10:02.858Z,0
2022-07-29T22:15:02.822Z,0
2022-07-29T22:20:02.876Z,0
2022-07-29T22:25:02.985Z,0
2022-07-29T22:30:02.873Z,0
2022-07-29T22:35:02.842Z,0
2022-07-29T22:40:02.870Z,0
2022-07-29T22:45:02.837Z,0
2022-07-29T22:50:03.022Z,0
2022-07-29T22:55:03.301Z,0
2022-07-29T23:00:02.921Z,0
2022-07-29T23:05:02.867Z,0
2022-07-29T23:10:02.905Z,0
2022-07-29T23:15:04.457Z,0
2022-07-29T23:20:02.908Z,0
2022-07-29T23:25:02.904Z,0
2022-07-29T23:30:02.907Z,0
2022-07-29T23:35:02.956Z,0
2022-07-29T23:40:02.927Z,0
2022-07-29T23:45:03.071Z,0
2022-07-29T23:50:03.087Z,0
2022-07-29T23:55:35.969Z,0
